Time;durP1;ratioP1;P1;durP2;ratioP2;P2;SDS_P1;SDS_P2;PMS_P1;PMS_P2;Temp;Humidity;BMP_temperature;BMP_pressure;BME280_temperature;BME280_humidity;BME280_pressure;Samples;Min_cycle;Max_cycle;Signal;HPM_P1;HPM_P2
2023/10/01 00:09:19;;;;;;;12.13;6.28;;;16.30;1.00;;;;;;20625494;28;20138;-41
2023/10/01 00:19:20;;;;;;;15.50;6.70;;;16.30;1.00;;;;;;20631297;28;20414;-41
2023/10/01 00:29:22;;;;;;;13.00;6.30;;;16.20;1.00;;;;;;20625725;28;20058;-41
2023/10/01 00:39:22;;;;;;;14.70;6.63;;;16.20;1.00;;;;;;20624464;28;20576;-41
2023/10/01 00:49:24;;;;;;;14.05;6.10;;;16.30;1.00;;;;;;20627651;28;20100;-41
2023/10/01 00:59:25;;;;;;;9.73;5.75;;;16.30;1.00;;;;;;20619409;28;20394;-41
2023/10/01 01:09:28;;;;;;;12.40;5.47;;;16.10;1.00;;;;;;20618805;28;20037;-41
2023/10/01 01:19:29;;;;;;;11.07;5.03;;;16.10;1.00;;;;;;20633121;28;20069;-41
2023/10/01 01:29:33;;;;;;;11.35;5.38;;;16.10;1.00;;;;;;20640932;28;20055;-41
2023/10/01 01:39:48;;;;;;;16.48;5.82;;;16.10;1.00;;;;;;20631061;28;20084;-41
2023/10/01 01:49:49;;;;;;;10.20;5.25;;;16.10;1.00;;;;;;20639958;28;20646;-41
2023/10/01 01:59:50;;;;;;;12.83;5.50;;;16.10;1.00;;;;;;20634448;28;20038;-41
2023/10/01 02:09:51;;;;;;;12.30;5.63;;;16.00;1.00;;;;;;20635067;28;20454;-41
2023/10/01 02:19:51;;;;;;;13.13;5.10;;;16.00;1.00;;;;;;20634452;28;20726;-41
2023/10/01 02:40:17;;;;;;;13.32;6.40;;;16.00;1.00;;;;;;21224937;22;20490;-43
2023/10/01 02:50:20;;;;;;;14.85;6.10;;;16.10;1.00;;;;;;20576128;28;20058;-43
2023/10/01 03:00:20;;;;;;;14.48;5.63;;;16.00;1.00;;;;;;20571912;28;20466;-43
2023/10/01 03:10:29;;;;;;;12.50;5.53;;;15.90;1.00;;;;;;20569028;28;20046;-43
2023/10/01 03:30:45;;;;;;;14.43;5.75;;;15.90;1.00;;;;;;20571765;28;20058;-43
2023/10/01 03:41:08;;;;;;;13.97;6.40;;;15.70;1.00;;;;;;20497641;28;20538;-43
2023/10/01 03:51:09;;;;;;;14.55;6.50;;;15.80;1.00;;;;;;20494176;28;20050;-43
2023/10/01 04:01:25;;;;;;;11.70;6.50;;;15.90;1.00;;;;;;20493185;28;20061;-43
2023/10/01 04:11:49;;;;;;;16.55;6.50;;;15.80;1.00;;;;;;20487785;28;20054;-43
2023/10/01 04:21:50;;;;;;;13.88;5.53;;;15.80;1.00;;;;;;20473957;28;20459;-43
2023/10/01 04:31:55;;;;;;;17.50;6.18;;;15.80;1.00;;;;;;20488842;28;20051;-43
2023/10/01 04:41:59;;;;;;;13.18;6.13;;;15.80;1.00;;;;;;20479283;28;20050;-43
2023/10/01 04:52:01;;;;;;;12.40;5.60;;;15.60;1.00;;;;;;20491761;28;20125;-43
2023/10/01 05:02:18;;;;;;;14.80;5.55;;;15.50;1.00;;;;;;20484060;28;20434;-43
2023/10/01 05:12:30;;;;;;;15.43;6.15;;;15.40;1.00;;;;;;20484750;28;20547;-43
2023/10/01 05:22:46;;;;;;;11.88;5.65;;;15.40;1.00;;;;;;20484944;28;20109;-43
2023/10/01 05:32:51;;;;;;;14.00;6.93;;;15.50;1.00;;;;;;20487830;28;20149;-43
2023/10/01 05:42:53;;;;;;;13.77;5.85;;;15.60;1.00;;;;;;20487680;28;20062;-43
2023/10/01 05:52:55;;;;;;;10.77;5.47;;;15.60;1.00;;;;;;20484603;28;20047;-43
2023/10/01 06:03:02;;;;;;;13.35;6.57;;;15.60;1.00;;;;;;20491559;28;20126;-43
2023/10/01 06:13:06;;;;;;;16.50;7.00;;;15.60;1.00;;;;;;20498364;28;20422;-43
2023/10/01 06:23:07;;;;;;;14.00;6.43;;;15.80;1.00;;;;;;20506121;28;20121;-43
2023/10/01 06:33:09;;;;;;;12.48;5.90;;;15.70;1.00;;;;;;20497101;28;20051;-43
2023/10/01 06:43:09;;;;;;;12.45;6.20;;;15.80;1.00;;;;;;20502759;28;20108;-43
2023/10/01 06:53:13;;;;;;;12.20;6.20;;;15.90;1.00;;;;;;20492003;28;20568;-43
2023/10/01 07:03:17;;;;;;;17.48;6.95;;;16.00;1.00;;;;;;20495107;28;20482;-43
2023/10/01 07:13:17;;;;;;;15.40;6.97;;;16.00;1.00;;;;;;20492202;28;20133;-43
2023/10/01 07:23:21;;;;;;;15.35;7.38;;;16.10;1.00;;;;;;20499775;28;20549;-43
2023/10/01 07:33:22;;;;;;;14.65;7.38;;;16.00;1.00;;;;;;20496715;28;20047;-42
2023/10/01 07:43:26;;;;;;;15.50;7.45;;;16.20;1.00;;;;;;20493024;28;20047;-42
2023/10/01 07:53:32;;;;;;;16.58;7.30;;;16.50;1.00;;;;;;20488634;28;20104;-42
2023/10/01 08:03:33;;;;;;;16.83;7.90;;;16.70;1.00;;;;;;20492077;28;20636;-42
2023/10/01 08:13:34;;;;;;;18.73;7.97;;;17.00;1.00;;;;;;20477475;28;20047;-43
2023/10/01 08:23:36;;;;;;;13.98;7.30;;;17.30;1.00;;;;;;20472150;28;20340;-43
2023/10/01 08:33:42;;;;;;;15.35;7.70;;;17.50;1.00;;;;;;20455522;28;20495;-42
2023/10/01 08:43:43;;;;;;;15.05;7.57;;;18.00;1.00;;;;;;20468328;28;20028;-43
2023/10/01 08:53:46;;;;;;;15.88;8.13;;;18.40;1.00;;;;;;20459175;28;20512;-43
2023/10/01 09:03:51;;;;;;;19.35;8.23;;;18.50;1.00;;;;;;20476696;28;20170;-43
2023/10/01 09:14:14;;;;;;;18.17;7.68;;;18.70;1.00;;;;;;20475998;28;20356;-43
2023/10/01 09:24:39;;;;;;;16.13;8.40;;;18.80;1.00;;;;;;20487271;28;20535;-43
2023/10/01 09:34:46;;;;;;;15.63;7.50;;;19.00;1.00;;;;;;20481212;28;20058;-43
2023/10/01 09:44:54;;;;;;;14.57;7.32;;;19.20;1.00;;;;;;20489524;28;20051;-43
2023/10/01 09:55:26;;;;;;;14.85;8.02;;;19.50;1.00;;;;;;20500189;28;20030;-43
2023/10/01 10:05:28;;;;;;;17.38;6.78;;;19.70;1.00;;;;;;20486034;28;20556;-42
2023/10/01 10:15:54;;;;;;;16.00;7.95;;;19.70;1.00;;;;;;20499087;28;20039;-43
2023/10/01 10:26:12;;;;;;;17.13;6.97;;;20.10;1.00;;;;;;20518307;28;20038;-43
2023/10/01 10:36:49;;;;;;;14.13;6.75;;;20.30;1.00;;;;;;20514548;28;20082;-43
2023/10/01 10:47:02;;;;;;;15.47;6.97;;;20.60;1.00;;;;;;20515022;28;20046;-43
2023/10/01 10:57:04;;;;;;;15.48;7.35;;;21.20;1.00;;;;;;20509992;28;20489;-43
2023/10/01 11:07:08;;;;;;;15.98;7.47;;;21.90;1.00;;;;;;20511752;28;20061;-43
2023/10/01 11:17:09;;;;;;;14.82;7.13;;;22.60;1.00;;;;;;20511595;28;20450;-43
2023/10/01 11:27:25;;;;;;;14.67;7.57;;;23.10;1.00;;;;;;20495690;28;20047;-42
2023/10/01 11:37:27;;;;;;;14.45;7.03;;;23.20;1.00;;;;;;20489894;28;20509;-42
2023/10/01 11:48:04;;;;;;;13.63;6.93;;;23.40;1.00;;;;;;20499018;28;20687;-43
2023/10/01 11:58:05;;;;;;;15.20;6.63;;;23.60;1.00;;;;;;20494817;28;20118;-43
2023/10/01 12:08:06;;;;;;;14.02;6.78;;;23.70;1.00;;;;;;20478973;28;20046;-43
2023/10/01 12:18:08;;;;;;;14.25;6.55;;;23.60;1.00;;;;;;20497163;28;20046;-43
2023/10/01 12:28:15;;;;;;;15.00;7.07;;;23.90;1.00;;;;;;20509123;28;20042;-43
2023/10/01 12:48:20;;;;;;;13.50;6.25;;;24.00;1.00;;;;;;20505813;28;20410;-43
2023/10/01 12:58:53;;;;;;;15.50;6.93;;;24.30;1.00;;;;;;20506203;28;20043;-43
2023/10/01 13:08:42;;;;;;;14.05;6.35;;;24.40;1.00;;;;;;20507312;28;20043;-43
2023/10/01 13:18:43;;;;;;;13.83;6.93;;;24.10;1.00;;;;;;20522031;28;20043;-42
2023/10/01 13:28:45;;;;;;;13.02;6.53;;;24.50;1.00;;;;;;20519989;28;20049;-43
2023/10/01 14:09:48;;;;;;;13.77;6.20;;;25.40;1.00;;;;;;20519180;28;20051;-43
2023/10/01 14:19:52;;;;;;;15.35;6.97;;;25.50;1.00;;;;;;20514590;28;20035;-42
2023/10/01 14:30:24;;;;;;;13.25;7.20;;;25.40;1.00;;;;;;20514807;28;20043;-43
2023/10/01 14:40:15;;;;;;;17.95;7.13;;;25.00;1.00;;;;;;20513967;28;20046;-43
2023/10/01 14:50:17;;;;;;;15.43;7.45;;;24.70;1.00;;;;;;20515574;28;20093;-43
2023/10/01 15:00:17;;;;;;;14.40;6.97;;;24.40;1.00;;;;;;20512754;28;20050;-43
2023/10/01 15:10:18;;;;;;;13.93;7.13;;;24.10;1.00;;;;;;20509660;28;20038;-43
2023/10/01 15:20:27;;;;;;;13.15;6.88;;;23.90;1.00;;;;;;20514230;28;20431;-43
2023/10/01 15:30:34;;;;;;;15.35;7.32;;;23.70;1.00;;;;;;20511530;28;20043;-43
2023/10/01 15:40:48;;;;;;;14.25;7.38;;;23.60;1.00;;;;;;20499573;28;20186;-42
2023/10/01 15:50:52;;;;;;;13.07;6.93;;;23.30;1.00;;;;;;20481772;28;20045;-42
2023/10/01 16:00:53;;;;;;;12.13;6.60;;;23.00;1.00;;;;;;20484226;28;20464;-42
2023/10/01 16:10:59;;;;;;;15.27;7.38;;;22.70;1.00;;;;;;20485001;28;20176;-42
2023/10/01 16:21:04;;;;;;;16.73;7.53;;;22.50;1.00;;;;;;20469996;28;20039;-42
2023/10/01 16:31:06;;;;;;;16.17;7.75;;;22.40;1.00;;;;;;20486718;28;20298;-43
2023/10/01 16:41:11;;;;;;;18.60;8.70;;;22.10;1.00;;;;;;20491993;28;20050;-43
2023/10/01 17:01:26;;;;;;;13.90;7.30;;;21.70;1.00;;;;;;20478216;28;20553;-43
2023/10/01 17:11:28;;;;;;;15.90;7.30;;;21.50;1.00;;;;;;20475498;28;20503;-43
2023/10/01 17:21:42;;;;;;;12.85;6.28;;;21.30;1.00;;;;;;20492602;28;20161;-43
2023/10/01 17:31:48;;;;;;;18.98;8.13;;;20.90;1.00;;;;;;20485565;28;20308;-42
2023/10/01 17:41:56;;;;;;;14.60;7.72;;;20.70;1.00;;;;;;20496062;28;20096;-43
2023/10/01 17:51:59;;;;;;;15.80;7.05;;;20.40;1.00;;;;;;20479765;28;20663;-43
2023/10/01 18:02:05;;;;;;;15.57;7.28;;;20.00;1.00;;;;;;20484365;28;20068;-43
2023/10/01 18:12:22;;;;;;;15.30;7.72;;;19.70;1.00;;;;;;20493759;28;20049;-43
2023/10/01 18:22:25;;;;;;;14.02;7.30;;;19.40;1.00;;;;;;20487847;28;20407;-43
2023/10/01 18:32:27;;;;;;;15.55;8.00;;;19.20;1.00;;;;;;20491269;28;20054;-42
2023/10/01 18:42:27;;;;;;;15.82;7.70;;;19.00;1.00;;;;;;20494315;28;20134;-42
2023/10/01 18:52:31;;;;;;;18.23;8.55;;;18.80;1.00;;;;;;20482175;28;20359;-42
2023/10/01 19:02:32;;;;;;;13.95;7.63;;;18.70;1.00;;;;;;20480192;28;20541;-43
2023/10/01 19:12:33;;;;;;;18.80;8.77;;;18.60;1.00;;;;;;20482352;28;20197;-42
2023/10/01 19:22:34;;;;;;;18.42;9.25;;;18.50;1.00;;;;;;20482879;28;20497;-43
2023/10/01 19:32:35;;;;;;;17.58;10.00;;;18.30;1.00;;;;;;20463940;28;20061;-42
2023/10/01 19:42:41;;;;;;;17.73;9.40;;;18.40;1.00;;;;;;20485998;28;20352;-43
2023/10/01 19:52:42;;;;;;;19.20;10.10;;;18.40;1.00;;;;;;20485225;28;20167;-42
2023/10/01 20:02:44;;;;;;;20.48;10.55;;;18.30;1.00;;;;;;20479196;28;20075;-42
2023/10/01 20:12:49;;;;;;;18.42;10.25;;;18.30;1.00;;;;;;20476079;28;20047;-43
2023/10/01 20:22:54;;;;;;;16.95;8.93;;;18.30;1.00;;;;;;20474542;28;20085;-42
2023/10/01 20:32:54;;;;;;;20.55;10.30;;;18.20;1.00;;;;;;20491185;28;20081;-43
2023/10/01 20:43:00;;;;;;;21.15;10.63;;;18.00;1.00;;;;;;20489502;28;20043;-42
2023/10/01 20:53:01;;;;;;;20.25;10.93;;;17.80;1.00;;;;;;20492551;28;20054;-42
2023/10/01 21:03:01;;;;;;;22.48;12.65;;;17.70;2.90;;;;;;20483927;28;20039;-42
2023/10/01 21:13:02;;;;;;;22.95;12.15;;;17.60;5.60;;;;;;20483793;28;20147;-43
2023/10/01 21:23:03;;;;;;;25.92;13.27;;;17.50;9.70;;;;;;20495927;28;20098;-43
2023/10/01 21:33:04;;;;;;;22.50;12.57;;;17.40;9.00;;;;;;20505220;28;20553;-42
2023/10/01 21:43:07;;;;;;;24.08;12.90;;;17.30;14.20;;;;;;20512773;28;20561;-43
2023/10/01 21:53:30;;;;;;;22.58;12.45;;;17.20;15.20;;;;;;20510137;28;20038;-43
2023/10/01 22:03:34;;;;;;;25.70;13.65;;;17.20;16.80;;;;;;20507220;28;20157;-42
2023/10/01 22:13:34;;;;;;;28.38;14.35;;;17.10;22.40;;;;;;20509414;28;20035;-43
2023/10/01 22:23:35;;;;;;;26.88;13.70;;;17.20;29.30;;;;;;20507262;28;20491;-43
2023/10/01 22:33:36;;;;;;;22.25;12.90;;;17.30;25.30;;;;;;20504302;28;20597;-43
2023/10/01 22:43:37;;;;;;;28.92;14.48;;;17.40;21.90;;;;;;20514156;28;20043;-42
2023/10/01 22:53:38;;;;;;;24.67;13.77;;;17.50;18.60;;;;;;20494347;28;20991;-43
2023/10/01 23:03:39;;;;;;;24.55;13.02;;;17.60;10.90;;;;;;20503957;28;20443;-42
2023/10/01 23:13:53;;;;;;;25.20;12.75;;;17.90;1.00;;;;;;20499025;28;20074;-43
2023/10/01 23:23:55;;;;;;;22.52;11.48;;;18.00;1.00;;;;;;20484716;28;20499;-42
2023/10/01 23:33:56;;;;;;;20.77;11.52;;;18.10;1.00;;;;;;20498614;28;20043;-42
2023/10/01 23:43:59;;;;;;;19.90;11.23;;;18.20;1.00;;;;;;20488655;28;20047;-43
2023/10/01 23:54:02;;;;;;;22.50;11.57;;;18.40;1.00;;;;;;20488973;28;20435;-43
